Time;durP1;ratioP1;P1;durP2;ratioP2;P2;SDS_P1;SDS_P2;PMS_P1;PMS_P2;Temp;Humidity;BMP_temperature;BMP_pressure;BME280_temperature;BME280_humidity;BME280_pressure;Samples;Min_cycle;Max_cycle;Signal;HPM_P1;HPM_P2
2023/04/30 00:00:08;;;;;;;14.50;13.00;;;;;;;10.67;95.65;96423.48;109839;1281;138441;-83
2023/04/30 00:03:29;;;;;;;;;;;;;;;;;;;;;
2023/04/30 00:06:56;;;;;;;14.00;12.50;;;;;;;10.48;97.34;96431.58;109743;1281;137852;-83
2023/04/30 00:10:23;;;;;;;15.80;13.10;;;;;;;10.40;97.12;96428.52;107072;1273;23246;-83
2023/04/30 00:13:42;;;;;;;;;;;;;;;;;;;;;
2023/04/30 00:17:09;;;;;;;17.90;14.50;;;;;;;10.33;97.51;96427.54;106756;1281;138796;-83
2023/04/30 00:20:34;;;;;;;;;;;;;;;;;;;;;
2023/04/30 00:23:55;;;;;;;21.50;15.70;;;;;;;10.37;97.48;96431.34;106779;1275;138571;-83
2023/04/30 00:27:22;;;;;;;16.80;13.80;;;;;;;10.41;97.89;96429.34;106965;1277;22588;-83
2023/04/30 00:30:48;;;;;;;17.30;14.30;;;;;;;10.39;97.62;96432.04;106878;1276;138348;-83
2023/04/30 00:34:08;;;;;;;18.70;15.30;;;;;;;10.41;97.53;96437.64;106938;1276;22656;-83
2023/04/30 00:37:19;;;;;;;;;;;;;;;;;;;;;
2023/04/30 00:40:46;;;;;;;15.60;11.80;;;;;;;10.39;97.69;96434.48;109817;1275;22197;-83
2023/04/30 00:44:13;;;;;;;15.80;12.40;;;;;;;10.38;98.28;96434.75;107142;1278;24357;-83
2023/04/30 00:47:40;;;;;;;16.30;12.60;;;;;;;10.31;98.27;96434.21;106860;1281;139083;-82
2023/04/30 00:50:52;;;;;;;11.70;8.80;;;;;;;10.24;99.01;96435.60;109848;1273;22165;-83
2023/04/30 00:54:10;;;;;;;19.60;15.40;;;;;;;10.18;98.86;96438.75;109816;1279;139225;-84
2023/04/30 00:57:28;;;;;;;;;;;;;;;;;;;;;
2023/04/30 01:00:46;;;;;;;;;;;;;;;;;;;;;
2023/04/30 01:03:59;;;;;;;20.10;15.10;;;;;;;10.20;99.23;96435.03;106901;1281;22533;-83
2023/04/30 01:07:27;;;;;;;18.50;14.70;;;;;;;10.17;99.66;96439.21;107005;1275;22696;-83
2023/04/30 01:10:30;;;;;;;21.70;17.70;;;;;;;10.12;99.75;96441.80;106947;1275;24309;-83
2023/04/30 01:13:11;;;;;;;24.50;17.50;;;;;;;10.07;99.91;96439.30;107038;1278;25373;-83
2023/04/30 01:16:36;;;;;;;24.60;18.00;;;;;;;10.05;99.94;96443.42;106938;1273;24239;-82
2023/04/30 01:20:07;;;;;;;;;;;;;;;;;;;;;
2023/04/30 01:23:32;;;;;;;;;;;;;;;;;;;;;
2023/04/30 01:27:22;;;;;;;25.40;17.10;;;;;;;10.17;100.00;96446.09;106981;1281;24229;-83
2023/04/30 01:30:35;;;;;;;31.50;23.00;;;;;;;10.08;99.99;96453.94;106708;1279;139201;-83
2023/04/30 01:33:46;;;;;;;34.30;23.70;;;;;;;10.04;100.00;96451.05;106993;1275;22527;-83
2023/04/30 01:37:41;;;;;;;32.90;23.50;;;;;;;10.01;100.00;96453.91;109797;1275;137851;-84
2023/04/30 01:41:27;;;;;;;34.20;23.60;;;;;;;10.01;99.94;96454.91;109600;1278;22228;-84
2023/04/30 01:45:04;;;;;;;;;;;;;;;;;;;;;
2023/04/30 01:48:44;;;;;;;35.60;25.60;;;;;;;10.13;99.89;96455.88;106837;1275;138371;-84
2023/04/30 01:52:23;;;;;;;33.40;22.10;;;;;;;10.16;99.65;96451.47;106786;1274;24234;-84
2023/04/30 01:55:52;;;;;;;35.50;25.90;;;;;;;10.15;99.94;96449.74;109890;1273;22283;-83
2023/04/30 01:59:17;;;;;;;32.20;24.70;;;;;;;10.07;100.00;96452.45;109646;1276;22235;-84
2023/04/30 02:02:44;;;;;;;25.70;20.30;;;;;;;9.99;100.00;96457.60;109866;1281;22145;-84
2023/04/30 02:06:02;;;;;;;;;;;;;;;;;;;;;
2023/04/30 02:09:30;;;;;;;25.90;18.60;;;;;;;9.91;100.00;96463.64;109899;1278;22107;-84
2023/04/30 02:12:54;;;;;;;;;;;;;;;;;;;;;
2023/04/30 02:16:14;;;;;;;23.10;17.90;;;;;;;9.85;100.00;96470.27;107072;1279;25287;-83
2023/04/30 02:19:33;;;;;;;25.40;20.30;;;;;;;9.83;100.00;96471.13;106898;1273;138228;-83
2023/04/30 02:22:45;;;;;;;27.20;21.70;;;;;;;9.85;100.00;96466.63;107048;1273;23531;-83
2023/04/30 02:25:52;;;;;;;;;;;;;;;9.88;100.00;96472.15;106998;1281;24370;-83
2023/04/30 02:29:01;;;;;;;;;;;;;;;;;;;;;
2023/04/30 02:32:19;;;;;;;;;;;;;;;;;;;;;
2023/04/30 02:35:46;;;;;;;21.30;17.90;;;;;;;9.76;100.00;96474.27;109737;1278;138397;-84
2023/04/30 02:39:05;;;;;;;;;;;;;;;;;;;;;
2023/04/30 02:42:32;;;;;;;20.60;17.20;;;;;;;9.73;100.00;96475.45;106781;1281;138178;-83
2023/04/30 02:45:44;;;;;;;20.60;16.10;;;;;;;9.77;100.00;96480.34;106804;1273;24276;-84
2023/04/30 02:49:11;;;;;;;20.30;16.20;;;;;;;9.73;100.00;96477.33;106773;1273;138782;-83
2023/04/30 02:52:37;;;;;;;22.20;17.90;;;;;;;9.68;100.00;96475.65;106955;1273;22533;-83
2023/04/30 02:56:04;;;;;;;21.90;17.00;;;;;;;9.64;100.00;96478.35;106948;1272;22565;-83
2023/04/30 02:59:30;;;;;;;22.90;17.10;;;;;;;9.58;100.00;96479.19;109912;1280;22168;-84
2023/04/30 03:02:46;;;;;;;22.60;17.80;;;;;;;9.53;100.00;96481.95;107099;1273;22540;-83
2023/04/30 03:06:15;;;;;;;;;;;;;;;;;;;;;
2023/04/30 03:09:42;;;;;;;21.50;17.60;;;;;;;9.61;100.00;96492.08;109861;1281;22343;-84
2023/04/30 03:13:09;;;;;;;16.80;14.90;;;;;;;9.67;100.00;96489.80;109768;1278;139043;-83
2023/04/30 03:16:38;;;;;;;20.50;16.20;;;;;;;9.67;100.00;96491.36;107556;1273;24268;-83
2023/04/30 03:20:06;;;;;;;21.20;16.70;;;;;;;9.68;100.00;96491.98;109628;1281;137511;-84
2023/04/30 03:23:24;;;;;;;18.20;13.50;;;;;;;9.69;100.00;96493.73;106860;1275;22633;-84
2023/04/30 03:26:51;;;;;;;16.30;13.50;;;;;;;9.69;100.00;96497.52;106928;1275;22640;-83
2023/04/30 03:30:18;;;;;;;16.30;13.10;;;;;;;9.61;100.00;96498.77;109813;1281;138874;-83
2023/04/30 03:33:45;;;;;;;14.20;12.60;;;;;;;9.57;100.00;96505.67;105692;1281;5573200;-84
2023/04/30 03:37:03;;;;;;;;;;;;;;;;;;;;;
2023/04/30 03:40:23;;;;;;;12.50;10.50;;;;;;;9.65;100.00;96508.46;109814;1281;22239;-84
2023/04/30 03:43:48;;;;;;;;;;;;;;;;;;;;;
2023/04/30 03:47:09;;;;;;;6.90;6.10;;;;;;;9.54;100.00;96515.83;109916;1280;22872;-84
2023/04/30 03:50:35;;;;;;;7.10;6.00;;;;;;;9.37;100.00;96531.71;107955;1273;22579;-83
2023/04/30 03:54:02;;;;;;;7.10;6.40;;;;;;;9.27;100.00;96537.50;106783;1274;138464;-83
2023/04/30 03:57:23;;;;;;;6.90;6.30;;;;;;;9.14;100.00;96544.23;106930;1276;22538;-83
2023/04/30 04:00:50;;;;;;;8.50;7.70;;;;;;;9.00;100.00;96545.39;107287;1274;138288;-83
2023/04/30 04:04:17;;;;;;;10.10;9.20;;;;;;;8.90;100.00;96552.93;109742;1281;22191;-84
2023/04/30 04:07:33;;;;;;;10.30;9.30;;;;;;;8.86;100.00;96560.30;109752;1277;138054;-84
2023/04/30 04:11:00;;;;;;;11.60;10.50;;;;;;;8.77;100.00;96564.56;109773;1275;22181;-83
2023/04/30 04:14:19;;;;;;;;;;;;;;;;;;;;;
2023/04/30 04:17:47;;;;;;;12.20;10.20;;;;;;;8.75;100.00;96581.73;109935;1274;22156;-84
2023/04/30 04:20:52;;;;;;;12.30;11.00;;;;;;;8.64;100.00;96591.21;106864;1260;25601;-83
2023/04/30 04:24:09;;;;;;;15.90;12.00;;;;;;;8.57;100.00;96595.75;106975;1273;138733;-83
2023/04/30 04:27:27;;;;;;;13.20;11.50;;;;;;;8.44;100.00;96609.39;106883;1274;22542;-83
2023/04/30 04:30:33;;;;;;;16.90;12.80;;;;;;;8.26;99.79;96623.70;106913;1273;137444;-83
2023/04/30 04:33:21;;;;;;;;;;;;;;;;;;;;;
2023/04/30 04:36:41;;;;;;;;;;;;;;;;;;;;;
2023/04/30 04:40:16;;;;;;;14.00;11.60;;;;;;;8.14;98.73;96648.95;109787;1276;22394;-84
2023/04/30 04:43:42;;;;;;;15.20;12.80;;;;;;;8.11;98.21;96656.10;107942;1273;138529;-83
2023/04/30 04:47:11;;;;;;;16.10;12.40;;;;;;;8.02;97.28;96668.13;106920;1274;25243;-83
2023/04/30 04:50:35;;;;;;;17.30;13.40;;;;;;;8.02;98.08;96674.53;106953;1273;23904;-83
2023/04/30 04:53:44;;;;;;;;;;;;;;;;;;;;;
2023/04/30 04:56:49;;;;;;;;;;;;;;;;;;;;;
2023/04/30 05:00:17;;;;;;;14.80;12.50;;;;;;;8.20;98.08;96693.00;109857;1275;138351;-84
2023/04/30 05:03:35;;;;;;;;;;;;;;;;;;;;;
2023/04/30 05:06:59;;;;;;;19.10;14.10;;;;;;;8.16;96.80;96703.98;109848;1273;137879;-84
2023/04/30 05:10:25;;;;;;;15.80;13.90;;;;;;;8.24;97.48;96709.11;109974;1279;22157;-84
2023/04/30 05:13:52;;;;;;;18.20;14.40;;;;;;;8.25;96.69;96711.13;106963;1273;137419;-84
2023/04/30 05:17:19;;;;;;;18.20;14.40;;;;;;;8.16;96.41;96715.48;106904;1273;22610;-83
2023/04/30 05:20:45;;;;;;;15.60;13.20;;;;;;;8.26;97.41;96722.26;109344;1274;22530;-84
2023/04/30 05:24:12;;;;;;;17.20;13.10;;;;;;;8.42;97.49;96721.61;109933;1280;22486;-84
2023/04/30 05:27:39;;;;;;;16.00;13.80;;;;;;;8.51;97.19;96721.17;106889;1273;24241;-83
2023/04/30 05:31:06;;;;;;;18.50;14.70;;;;;;;8.52;96.40;96729.39;109750;1280;137604;-85
2023/04/30 05:34:25;;;;;;;15.10;13.50;;;;;;;8.49;96.96;96737.20;109817;1275;23027;-84
2023/04/30 05:37:25;;;;;;;;;;;;;;;;;;;;;
2023/04/30 05:40:53;;;;;;;16.70;14.00;;;;;;;8.41;96.09;96744.78;109897;1275;22297;-84
2023/04/30 05:44:12;;;;;;;17.20;13.50;;;;;;;8.29;95.69;96749.75;109870;1281;138201;-83
2023/04/30 05:47:39;;;;;;;21.20;16.20;;;;;;;8.19;96.19;96753.48;109581;1273;23015;-84
2023/04/30 05:51:05;;;;;;;17.40;15.50;;;;;;;8.24;97.11;96758.34;107926;1273;22540;-83
2023/04/30 05:54:32;;;;;;;16.30;14.30;;;;;;;8.27;96.81;96767.20;109749;1281;138884;-84
2023/04/30 05:57:59;;;;;;;20.60;14.80;;;;;;;8.29;96.87;96771.48;109849;1275;22125;-84
2023/04/30 06:01:27;;;;;;;17.60;14.70;;;;;;;8.31;96.57;96773.36;109819;1280;138390;-84
2023/04/30 06:04:52;;;;;;;17.20;15.40;;;;;;;8.36;96.94;96776.59;109520;1274;23351;-83
2023/04/30 06:08:19;;;;;;;14.90;13.00;;;;;;;8.30;96.59;96782.34;106800;1273;137731;-83
2023/04/30 06:11:31;;;;;;;;;;;;;;;;;;;;;
2023/04/30 06:14:54;;;;;;;;;;;;;;;;;;;;;
2023/04/30 06:18:20;;;;;;;;;;;;;;;;;;;;;
2023/04/30 06:21:42;;;;;;;17.80;14.60;;;;;;;8.10;97.19;96793.23;106963;1274;22554;-83
2023/04/30 06:24:44;;;;;;;;;;;;;;;;;;;;;
2023/04/30 06:28:09;;;;;;;;;;;;;;;;;;;;;
2023/04/30 06:31:29;;;;;;;;;;;;;;;;;;;;;
2023/04/30 06:34:41;;;;;;;;;;;;;;;;;;;;;
2023/04/30 06:38:03;;;;;;;19.40;17.20;;;;;;;8.35;97.58;96798.30;106700;1274;137953;-83
2023/04/30 06:41:21;;;;;;;;;;;;;;;;;;;;;
2023/04/30 06:44:40;;;;;;;16.80;14.00;;;;;;;8.56;98.02;96800.27;106753;1272;138064;-83
2023/04/30 06:47:59;;;;;;;;;;;;;;;;;;;;;
2023/04/30 06:51:33;;;;;;;20.40;16.50;;;;;;;8.65;96.87;96803.86;110006;1273;22211;-84
2023/04/30 06:54:53;;;;;;;20.30;16.40;;;;;;;8.74;97.51;96800.75;109717;1273;137420;-83
2023/04/30 06:58:20;;;;;;;17.60;15.70;;;;;;;8.79;96.82;96807.19;109999;1272;22357;-84
2023/04/30 07:01:30;;;;;;;16.30;14.50;;;;;;;8.88;96.86;96805.27;107777;1276;137993;-83
2023/04/30 07:04:26;;;;;;;;;;;;;;;;;;;;;
2023/04/30 07:07:35;;;;;;;;;;;;;;;;;;;;;
2023/04/30 07:10:53;;;;;;;;;;;;;;;;;;;;;
2023/04/30 07:14:28;;;;;;;23.10;17.30;;;;;;;8.94;96.14;96805.64;109877;1273;138433;-84
2023/04/30 07:17:55;;;;;;;16.20;13.40;;;;;;;8.94;95.87;96810.62;107991;1273;23061;-83
2023/04/30 07:21:24;;;;;;;18.40;14.90;;;;;;;8.94;95.50;96809.04;109815;1274;22639;-84
2023/04/30 07:24:41;;;;;;;25.20;16.20;;;;;;;9.02;96.28;96812.00;108813;1275;138572;-84
2023/04/30 07:28:08;;;;;;;22.10;16.60;;;;;;;9.18;95.73;96814.54;106929;1273;22543;-84
2023/04/30 07:31:34;;;;;;;14.10;12.60;;;;;;;9.24;94.54;96819.87;109678;1273;137446;-84
2023/04/30 07:34:51;;;;;;;;;;;;;;;;;;;;;
2023/04/30 07:38:17;;;;;;;;;;;;;;;;;;;;;
2023/04/30 07:41:29;;;;;;;;;;;;;;;;;;;;;
2023/04/30 07:44:56;;;;;;;16.50;13.30;;;;;;;9.47;95.01;96822.46;109411;1272;137984;-84
2023/04/30 07:48:22;;;;;;;17.10;13.10;;;;;;;9.57;95.13;96828.23;108402;1275;22649;-84
2023/04/30 07:51:48;;;;;;;16.80;14.00;;;;;;;9.63;94.20;96832.11;107023;1272;22530;-84
2023/04/30 07:55:07;;;;;;;;;;;;;;;;;;;;;
2023/04/30 07:58:34;;;;;;;20.50;14.30;;;;;;;9.76;94.48;96830.42;109787;1275;23025;-84
2023/04/30 08:01:46;;;;;;;;;;;;;;;;;;;;;
2023/04/30 08:05:06;;;;;;;15.70;12.60;;;;;;;9.66;91.55;96836.54;109782;1274;23163;-84
2023/04/30 08:08:26;;;;;;;14.60;12.50;;;;;;;9.78;91.76;96834.07;109887;1273;139003;-84
2023/04/30 08:11:53;;;;;;;14.70;13.10;;;;;;;9.86;91.89;96840.06;107006;1273;23150;-83
2023/04/30 08:15:43;;;;;;;17.90;16.00;;;;;;;9.93;92.42;96838.30;109791;1279;22941;-84
2023/04/30 08:18:37;;;;;;;;;;;;;;;;;;;;;
2023/04/30 08:21:50;;;;;;;14.90;12.60;;;;;;;9.95;92.18;96841.39;108737;1273;24310;-84
2023/04/30 08:25:08;;;;;;;15.30;13.50;;;;;;;9.97;91.58;96838.73;106926;1273;139157;-83
2023/04/30 08:28:18;;;;;;;18.10;14.50;;;;;;;10.10;92.69;96835.23;107121;1272;22611;-84
2023/04/30 08:31:45;;;;;;;14.10;12.40;;;;;;;10.26;91.16;96834.36;106877;1274;138336;-84
2023/04/30 08:34:49;;;;;;;;;;;;;;;;;;;;;
2023/04/30 08:38:17;;;;;;;15.50;13.70;;;;;;;10.17;90.41;96839.60;107076;1273;139322;-84
2023/04/30 08:41:35;;;;;;;14.00;12.60;;;;;;;10.13;90.60;96839.15;106933;1272;22540;-84
2023/04/30 08:44:45;;;;;;;;;;;;;;;;;;;;;
2023/04/30 08:48:20;;;;;;;15.40;12.20;;;;;;;10.17;90.05;96842.41;107026;1273;23427;-84
2023/04/30 08:51:42;;;;;;;14.70;13.20;;;;;;;10.14;89.24;96842.77;109811;1275;22342;-84
2023/04/30 08:54:59;;;;;;;15.80;14.00;;;;;;;10.05;89.64;96843.48;107774;1275;137911;-84
2023/04/30 08:58:18;;;;;;;16.10;14.40;;;;;;;10.14;90.33;96842.20;106783;1275;22651;-84
2023/04/30 09:01:38;;;;;;;15.30;13.70;;;;;;;10.24;89.19;96841.99;106802;1274;138768;-84
2023/04/30 09:05:05;;;;;;;15.30;12.50;;;;;;;10.36;88.83;96841.50;109902;1279;22225;-84
2023/04/30 09:08:09;;;;;;;;;;;;;;;;;;;;;
2023/04/30 09:11:36;;;;;;;13.40;11.30;;;;;;;10.62;87.32;96846.84;106943;1274;22534;-84
2023/04/30 09:15:00;;;;;;;13.90;12.20;;;;;;;10.65;86.73;96852.86;107056;1274;138241;-84
2023/04/30 09:17:38;;;;;;;14.50;11.10;;;;;;;10.68;85.43;96852.71;107082;1278;22787;-83
2023/04/30 09:21:07;;;;;;;15.20;11.90;;;;;;;10.62;84.25;96854.48;107010;1272;139284;-84
2023/04/30 09:24:29;;;;;;;12.70;11.40;;;;;;;10.57;85.05;96859.02;109880;1275;22315;-84
2023/04/30 09:27:54;;;;;;;;;;;;;;;;;;;;;
2023/04/30 09:31:31;;;;;;;13.50;11.50;;;;;;;10.51;85.32;96863.02;109612;1273;138556;-84
2023/04/30 09:34:50;;;;;;;;;;;;;;;;;;;;;
2023/04/30 09:38:20;;;;;;;10.50;9.40;;;;;;;10.76;83.32;96854.08;109809;1279;138509;-84
2023/04/30 09:41:47;;;;;;;16.20;10.70;;;;;;;10.73;82.22;96856.61;108936;1275;22539;-84
2023/04/30 09:45:29;;;;;;;11.50;8.70;;;;;;;10.68;81.72;96856.45;106912;1274;137504;-84
2023/04/30 09:48:51;;;;;;;203.50;88.60;;;;;;;10.65;81.98;96853.77;106767;1276;25348;-84
2023/04/30 09:52:15;;;;;;;33.10;20.30;;;;;;;10.65;82.43;96850.90;109930;1281;22840;-84
2023/04/30 09:55:33;;;;;;;;;;;;;;;;;;;;;
2023/04/30 09:59:08;;;;;;;8.30;7.20;;;;;;;10.74;79.29;96848.54;110001;1274;22870;-84
2023/04/30 10:02:26;;;;;;;;;;;;;;;;;;;;;
2023/04/30 10:05:45;;;;;;;;;;;;;;;;;;;;;
2023/04/30 10:09:11;;;;;;;;;;;;;;;;;;;;;
2023/04/30 10:12:39;;;;;;;10.40;6.30;;;;;;;10.69;77.58;96841.89;109926;1268;22193;-84
2023/04/30 10:16:17;;;;;;;12.60;8.40;;;;;;;10.93;79.92;96836.78;109874;1275;23172;-84
2023/04/30 10:19:43;;;;;;;7.20;6.00;;;;;;;11.26;76.79;96826.27;107433;1273;138289;-83
2023/04/30 10:22:57;;;;;;;7.00;5.60;;;;;;;11.46;73.94;96823.08;109078;1273;22529;-84
2023/04/30 10:26:15;;;;;;;;;;;;;;;;;;;;;
2023/04/30 10:29:42;;;;;;;16.10;11.70;;;;;;;11.84;74.06;96815.31;106999;1275;24375;-83
2023/04/30 10:32:50;;;;;;;;;;;;;;;;;;;;;
2023/04/30 10:36:23;;;;;;;8.80;5.80;;;;;;;11.90;72.02;96821.70;109971;1275;22120;-84
2023/04/30 10:39:40;;;;;;;7.10;5.70;;;;;;;11.85;71.80;96822.53;109976;1275;22193;-84
2023/04/30 10:42:59;;;;;;;;;;;;;;;;;;;;;
2023/04/30 10:46:32;;;;;;;;;;;;;;;;;;;;;
2023/04/30 10:49:59;;;;;;;6.40;5.20;;;;;;;12.07;68.07;96819.23;108550;1275;137547;-84
2023/04/30 10:53:27;;;;;;;4.40;4.00;;;;;;;11.99;68.51;96813.84;109841;1281;22570;-84
2023/04/30 10:56:56;;;;;;;;;;;;;;;;;;;;;
2023/04/30 11:00:24;;;;;;;16.50;8.50;;;;;;;12.21;69.91;96806.28;108445;1278;22578;-84
2023/04/30 11:03:50;;;;;;;8.90;6.80;;;;;;;12.40;68.94;96800.93;108024;1273;25227;-84
2023/04/30 11:07:35;;;;;;;16.20;9.00;;;;;;;12.56;67.09;96798.68;106794;1273;22530;-81
2023/04/30 11:11:03;;;;;;;8.50;5.70;;;;;;;12.69;68.13;96799.94;106661;1278;22936;-83
2023/04/30 11:14:28;;;;;;;6.40;4.70;;;;;;;12.76;64.71;96803.14;106514;1280;137980;-83
2023/04/30 11:18:25;;;;;;;12.10;7.60;;;;;;;12.49;63.77;96805.34;106469;1281;22548;-83
2023/04/30 11:21:27;;;;;;;7.00;5.50;;;;;;;12.40;65.94;96807.23;109537;1280;137817;-83
2023/04/30 11:24:54;;;;;;;6.30;4.70;;;;;;;12.50;63.95;96806.33;107109;1275;24389;-83
2023/04/30 11:28:23;;;;;;;6.40;4.80;;;;;;;12.45;62.45;96803.98;109962;1274;22375;-83
2023/04/30 11:31:56;;;;;;;5.90;4.90;;;;;;;12.34;62.54;96806.64;107617;1275;137605;-83
2023/04/30 11:35:22;;;;;;;6.40;5.00;;;;;;;12.27;64.85;96809.08;109969;1281;22180;-83
2023/04/30 11:38:49;;;;;;;6.60;4.60;;;;;;;12.41;66.05;96810.01;109884;1273;137332;-84
2023/04/30 11:42:12;;;;;;;;;;;;;;;;;;;;;
2023/04/30 11:45:30;;;;;;;;;;;;;;;;;;;;;
2023/04/30 11:48:41;;;;;;;4.60;4.10;;;;;;;12.76;61.22;96805.95;106923;1273;22546;-83
2023/04/30 11:52:23;;;;;;;5.70;3.50;;;;;;;12.79;60.07;96807.90;109984;1275;22320;-84
2023/04/30 11:55:35;;;;;;;6.20;5.30;;;;;;;12.82;60.52;96810.17;109598;1281;137570;-84
2023/04/30 11:58:37;;;;;;;;;;;;;;;;;;;;;
2023/04/30 12:01:59;;;;;;;;;;;;;;;;;;;;;
2023/04/30 12:05:27;;;;;;;4.50;4.10;;;;;;;12.92;57.80;96809.77;109963;1275;22286;-83
2023/04/30 12:09:02;;;;;;;4.40;4.00;;;;;;;12.84;57.72;96808.88;109028;1273;137409;-83
2023/04/30 12:12:06;;;;;;;;;;;;;;;12.78;57.52;96806.77;106963;1278;24272;-83
2023/04/30 12:15:33;;;;;;;4.10;3.30;;;;;;;12.81;58.71;96803.82;106878;1275;124063;-83
2023/04/30 12:19:02;;;;;;;4.00;3.50;;;;;;;12.94;59.49;96798.02;109281;1273;22538;-83
2023/04/30 12:22:28;;;;;;;7.40;5.00;;;;;;;13.17;57.42;96802.55;106788;1275;22524;-84
2023/04/30 12:25:54;;;;;;;5.90;3.40;;;;;;;13.30;55.82;96800.22;109792;1273;137838;-84
2023/04/30 12:29:21;;;;;;;6.10;3.20;;;;;;;13.28;54.53;96796.59;109963;1280;22186;-84
2023/04/30 12:32:48;;;;;;;5.00;4.00;;;;;;;13.32;56.49;96789.40;109704;1281;138292;-84
2023/04/30 12:36:12;;;;;;;;;;;;;;;;;;;;;
2023/04/30 12:39:34;;;;;;;;;;;;;;;;;;;;;
2023/04/30 12:43:01;;;;;;;6.20;4.70;;;;;;;13.44;56.17;96789.81;107994;1275;22683;-83
2023/04/30 12:46:47;;;;;;;5.30;3.40;;;;;;;13.34;55.19;96787.24;107116;1273;24269;-83
2023/04/30 12:50:14;;;;;;;5.30;3.30;;;;;;;13.33;54.81;96786.70;109845;1281;137859;-84
2023/04/30 12:53:43;;;;;;;4.80;3.00;;;;;;;13.34;54.57;96778.37;109644;1281;22580;-83
2023/04/30 12:57:09;;;;;;;6.50;4.60;;;;;;;13.42;55.03;96775.87;106734;1275;138329;-83
2023/04/30 13:00:39;;;;;;;6.50;3.70;;;;;;;13.55;55.40;96774.00;106933;1274;22537;-83
2023/04/30 13:04:06;;;;;;;4.30;2.90;;;;;;;13.57;52.04;96778.43;106639;1275;137647;-83
2023/04/30 13:07:24;;;;;;;;;;;;;;;;;;;;;
2023/04/30 13:10:54;;;;;;;7.00;3.50;;;;;;;13.71;53.07;96769.36;109836;1274;22485;-84
2023/04/30 13:14:20;;;;;;;4.80;3.80;;;;;;;13.81;53.93;96766.20;109787;1275;138137;-84
2023/04/30 13:17:32;;;;;;;4.80;2.90;;;;;;;13.79;50.79;96766.40;109951;1281;22173;-84
2023/04/30 13:20:52;;;;;;;5.50;3.10;;;;;;;13.74;50.38;96758.85;109844;1273;138088;-84
2023/04/30 13:24:11;;;;;;;;;;;;;;;;;;;;;
2023/04/30 13:27:31;;;;;;;4.60;3.30;;;;;;;13.84;52.14;96765.73;109648;1278;137610;-84
2023/04/30 13:30:57;;;;;;;3.60;3.30;;;;;;;13.79;52.30;96763.52;106992;1275;24527;-82
2023/04/30 13:34:25;;;;;;;5.00;3.70;;;;;;;13.67;52.51;96763.43;106893;1275;22559;-83
2023/04/30 13:38:12;;;;;;;5.40;4.40;;;;;;;13.56;52.77;96766.41;109861;1271;22232;-83
2023/04/30 13:41:13;;;;;;;;;;;;;;;;;;;;;
2023/04/30 13:44:41;;;;;;;6.40;3.80;;;;;;;13.58;51.67;96765.26;106720;1276;138143;-83
2023/04/30 13:48:08;;;;;;;4.70;3.40;;;;;;;13.63;52.27;96771.34;107432;1279;24222;-83
2023/04/30 13:51:35;;;;;;;3.90;3.20;;;;;;;13.66;50.26;96771.93;109701;1278;137347;-84
2023/04/30 13:55:02;;;;;;;4.60;3.10;;;;;;;13.68;51.04;96768.94;109903;1275;22969;-83
2023/04/30 13:58:14;;;;;;;3.60;2.70;;;;;;;13.76;50.05;96764.40;109844;1277;137549;-83
2023/04/30 14:01:40;;;;;;;6.20;3.70;;;;;;;13.82;49.25;96761.05;109942;1272;22271;-84
2023/04/30 14:05:06;;;;;;;4.20;3.10;;;;;;;13.80;48.88;96767.23;108210;1273;22626;-83
2023/04/30 14:08:33;;;;;;;5.20;4.10;;;;;;;13.83;48.69;96760.92;106793;1259;137793;-84
2023/04/30 14:12:00;;;;;;;4.60;3.40;;;;;;;13.82;48.74;96764.88;106999;1275;23303;-83
2023/04/30 14:15:29;;;;;;;5.10;2.90;;;;;;;13.84;49.95;96766.55;106741;1272;137210;-83
2023/04/30 14:18:53;;;;;;;4.80;2.70;;;;;;;13.85;48.71;96767.44;106942;1272;24489;-83
2023/04/30 14:22:20;;;;;;;4.40;2.80;;;;;;;13.89;48.68;96768.22;109754;1273;137659;-83
2023/04/30 14:25:47;;;;;;;7.20;3.20;;;;;;;13.90;47.18;96761.27;106971;1275;22536;-83
2023/04/30 14:29:13;;;;;;;3.30;2.50;;;;;;;13.90;48.15;96757.98;106905;1274;22540;-83
2023/04/30 14:32:39;;;;;;;5.80;3.30;;;;;;;14.00;49.75;96767.52;106797;1279;137748;-83
2023/04/30 14:36:04;;;;;;;;;;;;;;;;;;;;;
2023/04/30 14:39:24;;;;;;;4.30;2.40;;;;;;;13.98;46.81;96762.66;106777;1272;137512;-83
2023/04/30 14:42:42;;;;;;;;;;;;;;;;;;;;;
2023/04/30 14:46:08;;;;;;;4.00;2.50;;;;;;;14.01;47.02;96757.64;106968;1273;137816;-83
2023/04/30 14:49:26;;;;;;;5.00;2.60;;;;;;;14.02;49.09;96757.48;107631;1259;24187;-83
2023/04/30 14:52:45;;;;;;;3.70;3.00;;;;;;;14.08;47.58;96761.23;109961;1275;22524;-83
2023/04/30 14:56:12;;;;;;;5.10;2.70;;;;;;;14.06;46.96;96759.46;109488;1277;22639;-84
2023/04/30 14:59:33;;;;;;;4.40;3.00;;;;;;;14.10;47.01;96762.17;107018;1272;22575;-83
2023/04/30 15:02:58;;;;;;;4.50;2.50;;;;;;;14.11;47.68;96761.01;108213;1272;137346;-83
2023/04/30 15:06:25;;;;;;;5.30;3.10;;;;;;;14.17;48.34;96755.98;106827;1274;22534;-83
2023/04/30 15:09:51;;;;;;;5.50;2.80;;;;;;;14.27;48.59;96760.10;106728;1275;137675;-83
2023/04/30 15:13:18;;;;;;;4.40;3.10;;;;;;;14.22;47.19;96754.11;106813;1275;22993;-83
2023/04/30 15:16:45;;;;;;;4.80;2.50;;;;;;;14.21;47.73;96756.80;108149;1281;137725;-84
2023/04/30 15:20:01;;;;;;;;;;;;;;;;;;;;;
2023/04/30 15:23:37;;;;;;;5.40;3.00;;;;;;;14.27;47.83;96755.00;109954;1275;23105;-83
2023/04/30 15:27:04;;;;;;;5.20;2.20;;;;;;;14.25;47.08;96758.85;109721;1273;138193;-83
2023/04/30 15:30:23;;;;;;;3.10;2.40;;;;;;;14.28;47.13;96759.73;109954;1275;23130;-84
2023/04/30 15:33:42;;;;;;;;;;;;;;;;;;;;;
2023/04/30 15:37:09;;;;;;;4.10;2.90;;;;;;;14.14;45.66;96759.64;109834;1275;22988;-84
2023/04/30 15:40:36;;;;;;;5.70;2.50;;;;;;;14.12;46.66;96756.71;109702;1274;137731;-84
2023/04/30 15:44:01;;;;;;;3.60;2.70;;;;;;;14.13;45.94;96759.88;107187;1273;22639;-83
2023/04/30 15:47:27;;;;;;;3.90;2.80;;;;;;;14.12;45.66;96759.84;107058;1275;25512;-83
2023/04/30 15:50:55;;;;;;;4.50;2.70;;;;;;;14.11;46.55;96759.80;106843;1273;137883;-82
2023/04/30 15:54:13;;;;;;;4.40;2.60;;;;;;;14.12;47.88;96754.09;109907;1281;22426;-84
2023/04/30 15:57:40;;;;;;;4.20;2.60;;;;;;;14.18;46.97;96754.54;109752;1277;137997;-84
2023/04/30 16:01:07;;;;;;;4.10;2.80;;;;;;;14.20;47.60;96759.81;109877;1274;22761;-84
2023/04/30 16:04:33;;;;;;;3.80;2.90;;;;;;;14.18;47.27;96760.13;109720;1274;137351;-83
2023/04/30 16:07:44;;;;;;;;;;;;;;;;;;;;;
2023/04/30 16:11:12;;;;;;;4.70;2.80;;;;;;;14.14;46.08;96761.66;109850;1279;22822;-83
2023/04/30 16:14:38;;;;;;;3.90;2.80;;;;;;;14.11;45.96;96758.76;109809;1274;22316;-84
2023/04/30 16:17:50;;;;;;;4.30;2.50;;;;;;;14.09;46.81;96758.46;109814;1278;22199;-83
2023/04/30 16:21:17;;;;;;;4.70;2.60;;;;;;;14.10;46.05;96759.59;109811;1280;138584;-84
2023/04/30 16:24:28;;;;;;;;;;;;;;;;;;;;;
2023/04/30 16:27:55;;;;;;;4.00;2.80;;;;;;;14.03;46.70;96751.45;109705;1281;138588;-84
2023/04/30 16:31:22;;;;;;;5.90;2.70;;;;;;;14.02;46.53;96749.92;109966;1278;23211;-84
2023/04/30 16:34:48;;;;;;;4.70;2.80;;;;;;;13.99;46.34;96749.30;109717;1281;138622;-84
2023/04/30 16:38:15;;;;;;;6.40;3.10;;;;;;;13.95;45.86;96750.55;109168;1275;23976;-83
2023/04/30 16:41:42;;;;;;;4.30;2.40;;;;;;;13.91;46.57;96750.14;106795;1274;23562;-83
2023/04/30 16:44:59;;;;;;;;;;;;;;;;;;;;;
2023/04/30 16:48:18;;;;;;;5.60;2.70;;;;;;;13.85;46.32;96754.50;109951;1281;22219;-83
2023/04/30 16:51:38;;;;;;;5.00;3.50;;;;;;;13.78;46.74;96754.56;109714;1281;137111;-84
2023/04/30 16:55:05;;;;;;;3.90;2.90;;;;;;;13.73;46.67;96755.39;108874;1275;22533;-84
2023/04/30 16:58:29;;;;;;;;;;;;;;;;;;;;;
2023/04/30 17:01:57;;;;;;;4.40;2.70;;;;;;;13.62;46.52;96761.18;109897;1281;23301;-84
2023/04/30 17:05:22;;;;;;;4.80;2.90;;;;;;;13.57;46.83;96762.09;108149;1273;22697;-85
2023/04/30 17:08:49;;;;;;;3.90;2.40;;;;;;;13.53;47.32;96764.42;107183;1274;25181;-84
2023/04/30 17:12:16;;;;;;;6.50;2.70;;;;;;;13.49;48.02;96767.59;107129;1275;24264;-84
2023/04/30 17:15:42;;;;;;;6.00;3.20;;;;;;;13.41;48.64;96771.60;107196;1281;137526;-84
2023/04/30 17:19:08;;;;;;;3.60;2.90;;;;;;;13.38;50.36;96773.23;107063;1274;22533;-84
2023/04/30 17:22:34;;;;;;;4.80;3.20;;;;;;;13.33;49.86;96777.80;106649;1279;137090;-84
2023/04/30 17:26:03;;;;;;;5.60;3.20;;;;;;;13.24;50.12;96778.58;107329;1279;24240;-84
2023/04/30 17:29:27;;;;;;;4.50;2.80;;;;;;;13.10;50.23;96784.85;109771;1281;22838;-84
2023/04/30 17:32:55;;;;;;;4.80;3.60;;;;;;;13.00;51.15;96787.05;109932;1275;23124;-84
2023/04/30 17:36:21;;;;;;;6.10;2.90;;;;;;;12.91;51.80;96789.90;109819;1281;22203;-84
2023/04/30 17:39:47;;;;;;;4.60;3.10;;;;;;;12.82;50.98;96794.45;109801;1279;137865;-84